sensor_id;sensor_type;location;lat;lon;timestamp;P1;durP1;ratioP1;P2;durP2;ratioP2
12848;SDS011;6493;50.928;7.172;2022-11-12T00:02:51;1.30;;;1.10;;
12848;SDS011;6493;50.928;7.172;2022-11-12T00:08:13;1.20;;;1.03;;
12848;SDS011;6493;50.928;7.172;2022-11-12T00:13:37;1.30;;;0.90;;
12848;SDS011;6493;50.928;7.172;2022-11-12T00:18:59;1.00;;;0.90;;
12848;SDS011;6493;50.928;7.172;2022-11-12T00:24:21;1.00;;;0.70;;
12848;SDS011;6493;50.928;7.172;2022-11-12T00:29:44;0.87;;;0.73;;
12848;SDS011;6493;50.928;7.172;2022-11-12T00:35:07;1.60;;;0.77;;
12848;SDS011;6493;50.928;7.172;2022-11-12T00:40:33;1.00;;;0.80;;
12848;SDS011;6493;50.928;7.172;2022-11-12T00:45:57;1.07;;;0.90;;
12848;SDS011;6493;50.928;7.172;2022-11-12T00:51:19;1.30;;;0.83;;
12848;SDS011;6493;50.928;7.172;2022-11-12T00:56:41;1.60;;;1.00;;
12848;SDS011;6493;50.928;7.172;2022-11-12T01:02:05;0.70;;;0.70;;
12848;SDS011;6493;50.928;7.172;2022-11-12T01:07:27;0.80;;;0.80;;
12848;SDS011;6493;50.928;7.172;2022-11-12T01:12:49;0.90;;;0.90;;
12848;SDS011;6493;50.928;7.172;2022-11-12T01:18:13;0.90;;;0.90;;
12848;SDS011;6493;50.928;7.172;2022-11-12T01:23:36;3.10;;;0.80;;
12848;SDS011;6493;50.928;7.172;2022-11-12T01:28:59;0.90;;;0.90;;
12848;SDS011;6493;50.928;7.172;2022-11-12T01:34:23;0.63;;;0.63;;
12848;SDS011;6493;50.928;7.172;2022-11-12T01:39:45;1.17;;;0.90;;
12848;SDS011;6493;50.928;7.172;2022-11-12T01:45:11;1.10;;;0.87;;
12848;SDS011;6493;50.928;7.172;2022-11-12T01:50:42;0.83;;;0.83;;
12848;SDS011;6493;50.928;7.172;2022-11-12T01:56:05;1.37;;;1.03;;
12848;SDS011;6493;50.928;7.172;2022-11-12T02:01:27;2.10;;;0.70;;
12848;SDS011;6493;50.928;7.172;2022-11-12T02:06:51;0.87;;;0.87;;
12848;SDS011;6493;50.928;7.172;2022-11-12T02:12:16;1.00;;;0.60;;
12848;SDS011;6493;50.928;7.172;2022-11-12T02:17:52;1.13;;;0.90;;
12848;SDS011;6493;50.928;7.172;2022-11-12T02:23:16;1.40;;;0.87;;
12848;SDS011;6493;50.928;7.172;2022-11-12T02:28:38;0.80;;;0.80;;
12848;SDS011;6493;50.928;7.172;2022-11-12T02:34:00;0.97;;;0.77;;
12848;SDS011;6493;50.928;7.172;2022-11-12T02:39:24;0.73;;;0.73;;
12848;SDS011;6493;50.928;7.172;2022-11-12T02:44:46;1.47;;;1.10;;
12848;SDS011;6493;50.928;7.172;2022-11-12T02:50:08;1.10;;;1.00;;
12848;SDS011;6493;50.928;7.172;2022-11-12T02:55:33;0.80;;;0.80;;
12848;SDS011;6493;50.928;7.172;2022-11-12T03:00:55;1.00;;;0.73;;
12848;SDS011;6493;50.928;7.172;2022-11-12T03:06:17;1.00;;;0.77;;
12848;SDS011;6493;50.928;7.172;2022-11-12T03:11:41;0.87;;;0.80;;
12848;SDS011;6493;50.928;7.172;2022-11-12T03:17:03;1.10;;;0.73;;
12848;SDS011;6493;50.928;7.172;2022-11-12T03:22:25;0.83;;;0.80;;
12848;SDS011;6493;50.928;7.172;2022-11-12T03:27:48;0.80;;;0.80;;
12848;SDS011;6493;50.928;7.172;2022-11-12T03:33:17;0.80;;;0.77;;
12848;SDS011;6493;50.928;7.172;2022-11-12T03:38:39;0.70;;;0.70;;
12848;SDS011;6493;50.928;7.172;2022-11-12T03:44:02;0.70;;;0.70;;
12848;SDS011;6493;50.928;7.172;2022-11-12T03:49:24;1.10;;;0.80;;
12848;SDS011;6493;50.928;7.172;2022-11-12T03:54:47;2.27;;;0.80;;
12848;SDS011;6493;50.928;7.172;2022-11-12T04:00:12;2.13;;;0.90;;
12848;SDS011;6493;50.928;7.172;2022-11-12T04:05:34;0.80;;;0.70;;
12848;SDS011;6493;50.928;7.172;2022-11-12T04:11:15;1.00;;;0.80;;
12848;SDS011;6493;50.928;7.172;2022-11-12T04:16:39;1.00;;;0.83;;
12848;SDS011;6493;50.928;7.172;2022-11-12T04:22:18;0.97;;;0.87;;
12848;SDS011;6493;50.928;7.172;2022-11-12T04:27:40;1.00;;;0.83;;
12848;SDS011;6493;50.928;7.172;2022-11-12T04:33:04;1.00;;;0.90;;
12848;SDS011;6493;50.928;7.172;2022-11-12T04:38:26;1.23;;;1.00;;
12848;SDS011;6493;50.928;7.172;2022-11-12T04:43:48;0.87;;;0.70;;
12848;SDS011;6493;50.928;7.172;2022-11-12T04:49:29;0.50;;;0.50;;
12848;SDS011;6493;50.928;7.172;2022-11-12T04:54:51;1.17;;;0.80;;
12848;SDS011;6493;50.928;7.172;2022-11-12T05:00:14;2.23;;;0.60;;
12848;SDS011;6493;50.928;7.172;2022-11-12T05:05:38;0.77;;;0.77;;
12848;SDS011;6493;50.928;7.172;2022-11-12T05:11:00;0.60;;;0.60;;
12848;SDS011;6493;50.928;7.172;2022-11-12T05:16:22;0.60;;;0.60;;
12848;SDS011;6493;50.928;7.172;2022-11-12T05:21:46;0.63;;;0.60;;
12848;SDS011;6493;50.928;7.172;2022-11-12T05:27:27;0.70;;;0.70;;
12848;SDS011;6493;50.928;7.172;2022-11-12T05:32:49;0.70;;;0.63;;
12848;SDS011;6493;50.928;7.172;2022-11-12T05:38:12;0.70;;;0.70;;
12848;SDS011;6493;50.928;7.172;2022-11-12T05:43:34;0.90;;;0.90;;
12848;SDS011;6493;50.928;7.172;2022-11-12T05:48:56;1.03;;;0.93;;
12848;SDS011;6493;50.928;7.172;2022-11-12T05:54:20;1.50;;;0.93;;
12848;SDS011;6493;50.928;7.172;2022-11-12T05:59:44;1.10;;;0.83;;
12848;SDS011;6493;50.928;7.172;2022-11-12T06:05:06;1.07;;;0.80;;
12848;SDS011;6493;50.928;7.172;2022-11-12T06:10:30;0.73;;;0.63;;
12848;SDS011;6493;50.928;7.172;2022-11-12T06:15:53;0.77;;;0.70;;
12848;SDS011;6493;50.928;7.172;2022-11-12T06:21:16;0.60;;;0.60;;
12848;SDS011;6493;50.928;7.172;2022-11-12T06:26:43;0.60;;;0.60;;
12848;SDS011;6493;50.928;7.172;2022-11-12T06:32:05;0.80;;;0.60;;
12848;SDS011;6493;50.928;7.172;2022-11-12T06:37:27;0.60;;;0.60;;
12848;SDS011;6493;50.928;7.172;2022-11-12T06:42:56;0.77;;;0.60;;
12848;SDS011;6493;50.928;7.172;2022-11-12T06:48:17;0.60;;;0.60;;
12848;SDS011;6493;50.928;7.172;2022-11-12T06:53:40;0.57;;;0.53;;
12848;SDS011;6493;50.928;7.172;2022-11-12T06:59:03;1.00;;;0.60;;
12848;SDS011;6493;50.928;7.172;2022-11-12T07:04:25;0.60;;;0.60;;
12848;SDS011;6493;50.928;7.172;2022-11-12T07:09:47;0.50;;;0.50;;
12848;SDS011;6493;50.928;7.172;2022-11-12T07:15:11;0.60;;;0.60;;
12848;SDS011;6493;50.928;7.172;2022-11-12T07:20:33;0.63;;;0.63;;
12848;SDS011;6493;50.928;7.172;2022-11-12T07:25:56;0.57;;;0.57;;
12848;SDS011;6493;50.928;7.172;2022-11-12T07:31:20;0.63;;;0.63;;
12848;SDS011;6493;50.928;7.172;2022-11-12T07:36:42;0.43;;;0.43;;
12848;SDS011;6493;50.928;7.172;2022-11-12T07:42:04;1.03;;;0.80;;
12848;SDS011;6493;50.928;7.172;2022-11-12T07:47:28;0.60;;;0.50;;
12848;SDS011;6493;50.928;7.172;2022-11-12T07:52:50;1.20;;;1.00;;
12848;SDS011;6493;50.928;7.172;2022-11-12T07:58:13;2.67;;;1.27;;
12848;SDS011;6493;50.928;7.172;2022-11-12T08:03:36;1.23;;;1.00;;
12848;SDS011;6493;50.928;7.172;2022-11-12T08:08:59;2.03;;;0.80;;
12848;SDS011;6493;50.928;7.172;2022-11-12T08:14:24;1.27;;;0.90;;
12848;SDS011;6493;50.928;7.172;2022-11-12T08:19:47;1.30;;;0.90;;
12848;SDS011;6493;50.928;7.172;2022-11-12T08:25:14;2.03;;;0.97;;
12848;SDS011;6493;50.928;7.172;2022-11-12T08:30:38;1.73;;;1.10;;
12848;SDS011;6493;50.928;7.172;2022-11-12T08:36:02;2.13;;;1.40;;
12848;SDS011;6493;50.928;7.172;2022-11-12T08:41:25;1.67;;;1.30;;
12848;SDS011;6493;50.928;7.172;2022-11-12T08:46:48;1.70;;;1.30;;
12848;SDS011;6493;50.928;7.172;2022-11-12T08:52:12;2.37;;;1.40;;
12848;SDS011;6493;50.928;7.172;2022-11-12T08:57:37;1.50;;;1.40;;
12848;SDS011;6493;50.928;7.172;2022-11-12T09:03:00;1.43;;;1.33;;
12848;SDS011;6493;50.928;7.172;2022-11-12T09:08:25;1.00;;;0.90;;
12848;SDS011;6493;50.928;7.172;2022-11-12T09:13:51;2.10;;;1.90;;
12848;SDS011;6493;50.928;7.172;2022-11-12T09:19:13;2.47;;;1.63;;
12848;SDS011;6493;50.928;7.172;2022-11-12T09:24:37;2.00;;;1.70;;
12848;SDS011;6493;50.928;7.172;2022-11-12T09:29:59;3.77;;;2.40;;
12848;SDS011;6493;50.928;7.172;2022-11-12T09:35:21;2.50;;;2.30;;
12848;SDS011;6493;50.928;7.172;2022-11-12T09:40:47;2.57;;;2.37;;
12848;SDS011;6493;50.928;7.172;2022-11-12T09:46:39;3.83;;;2.60;;
12848;SDS011;6493;50.928;7.172;2022-11-12T09:52:09;2.90;;;2.57;;
12848;SDS011;6493;50.928;7.172;2022-11-12T09:57:38;3.17;;;2.40;;
12848;SDS011;6493;50.928;7.172;2022-11-12T10:03:01;3.17;;;2.40;;
12848;SDS011;6493;50.928;7.172;2022-11-12T10:08:36;2.30;;;2.10;;
12848;SDS011;6493;50.928;7.172;2022-11-12T10:14:05;3.10;;;1.93;;
12848;SDS011;6493;50.928;7.172;2022-11-12T10:19:44;2.80;;;2.13;;
12848;SDS011;6493;50.928;7.172;2022-11-12T10:25:15;3.20;;;2.17;;
12848;SDS011;6493;50.928;7.172;2022-11-12T10:30:40;2.97;;;2.17;;
12848;SDS011;6493;50.928;7.172;2022-11-12T10:41:50;2.80;;;2.40;;
12848;SDS011;6493;50.928;7.172;2022-11-12T10:47:26;2.73;;;2.10;;
12848;SDS011;6493;50.928;7.172;2022-11-12T10:53:00;2.80;;;2.40;;
12848;SDS011;6493;50.928;7.172;2022-11-12T10:58:23;2.23;;;1.87;;
12848;SDS011;6493;50.928;7.172;2022-11-12T11:03:49;2.50;;;1.73;;
12848;SDS011;6493;50.928;7.172;2022-11-12T11:09:17;2.73;;;2.17;;
12848;SDS011;6493;50.928;7.172;2022-11-12T11:14:40;2.43;;;1.77;;
12848;SDS011;6493;50.928;7.172;2022-11-12T11:20:12;2.10;;;1.70;;
12848;SDS011;6493;50.928;7.172;2022-11-12T11:25:39;2.43;;;1.90;;
12848;SDS011;6493;50.928;7.172;2022-11-12T11:31:05;2.57;;;2.10;;
12848;SDS011;6493;50.928;7.172;2022-11-12T11:36:42;2.27;;;2.07;;
12848;SDS011;6493;50.928;7.172;2022-11-12T11:42:24;2.70;;;2.20;;
12848;SDS011;6493;50.928;7.172;2022-11-12T11:48:00;3.50;;;2.27;;
12848;SDS011;6493;50.928;7.172;2022-11-12T11:53:34;1.97;;;1.73;;
12848;SDS011;6493;50.928;7.172;2022-11-12T11:59:10;2.33;;;2.13;;
12848;SDS011;6493;50.928;7.172;2022-11-12T12:04:45;2.07;;;1.43;;
12848;SDS011;6493;50.928;7.172;2022-11-12T12:10:14;2.80;;;1.90;;
12848;SDS011;6493;50.928;7.172;2022-11-12T12:16:11;2.13;;;1.80;;
12848;SDS011;6493;50.928;7.172;2022-11-12T12:21:43;2.10;;;1.80;;
12848;SDS011;6493;50.928;7.172;2022-11-12T12:27:10;2.40;;;1.77;;
12848;SDS011;6493;50.928;7.172;2022-11-12T12:32:36;2.20;;;2.00;;
12848;SDS011;6493;50.928;7.172;2022-11-12T12:38:04;1.77;;;1.60;;
12848;SDS011;6493;50.928;7.172;2022-11-12T12:43:34;1.83;;;1.30;;
12848;SDS011;6493;50.928;7.172;2022-11-12T12:49:02;2.00;;;1.40;;
12848;SDS011;6493;50.928;7.172;2022-11-12T13:00:30;1.63;;;1.53;;
12848;SDS011;6493;50.928;7.172;2022-11-12T13:06:04;1.37;;;1.27;;
12848;SDS011;6493;50.928;7.172;2022-11-12T13:17:43;1.10;;;0.90;;
12848;SDS011;6493;50.928;7.172;2022-11-12T13:23:10;1.87;;;1.30;;
12848;SDS011;6493;50.928;7.172;2022-11-12T13:40:56;1.47;;;1.00;;
12848;SDS011;6493;50.928;7.172;2022-11-12T13:46:30;0.80;;;0.80;;
12848;SDS011;6493;50.928;7.172;2022-11-12T13:51:55;1.23;;;0.90;;
12848;SDS011;6493;50.928;7.172;2022-11-12T13:57:25;1.03;;;0.70;;
12848;SDS011;6493;50.928;7.172;2022-11-12T14:02:51;2.03;;;1.03;;
12848;SDS011;6493;50.928;7.172;2022-11-12T14:08:20;1.63;;;0.80;;
12848;SDS011;6493;50.928;7.172;2022-11-12T14:13:59;0.60;;;0.60;;
12848;SDS011;6493;50.928;7.172;2022-11-12T14:19:36;0.50;;;0.50;;
12848;SDS011;6493;50.928;7.172;2022-11-12T14:25:18;0.50;;;0.50;;
12848;SDS011;6493;50.928;7.172;2022-11-12T14:30:45;0.80;;;0.60;;
12848;SDS011;6493;50.928;7.172;2022-11-12T14:36:09;2.13;;;1.23;;
12848;SDS011;6493;50.928;7.172;2022-11-12T14:41:36;1.20;;;1.10;;
12848;SDS011;6493;50.928;7.172;2022-11-12T14:47:05;1.00;;;0.90;;
12848;SDS011;6493;50.928;7.172;2022-11-12T14:52:29;0.97;;;0.73;;
12848;SDS011;6493;50.928;7.172;2022-11-12T14:57:57;1.30;;;0.80;;
12848;SDS011;6493;50.928;7.172;2022-11-12T15:03:20;0.60;;;0.60;;
12848;SDS011;6493;50.928;7.172;2022-11-12T15:08:54;0.90;;;0.87;;
12848;SDS011;6493;50.928;7.172;2022-11-12T15:14:20;0.80;;;0.70;;
12848;SDS011;6493;50.928;7.172;2022-11-12T15:19:44;0.57;;;0.57;;
12848;SDS011;6493;50.928;7.172;2022-11-12T15:25:16;0.70;;;0.70;;
12848;SDS011;6493;50.928;7.172;2022-11-12T15:30:44;1.13;;;0.77;;
12848;SDS011;6493;50.928;7.172;2022-11-12T15:36:21;0.70;;;0.70;;
12848;SDS011;6493;50.928;7.172;2022-11-12T15:41:44;0.80;;;0.70;;
12848;SDS011;6493;50.928;7.172;2022-11-12T15:47:08;0.90;;;0.80;;
12848;SDS011;6493;50.928;7.172;2022-11-12T15:52:37;1.20;;;0.93;;
12848;SDS011;6493;50.928;7.172;2022-11-12T15:58:00;0.90;;;0.77;;
12848;SDS011;6493;50.928;7.172;2022-11-12T16:03:24;1.20;;;1.00;;
12848;SDS011;6493;50.928;7.172;2022-11-12T16:08:47;0.83;;;0.80;;
12848;SDS011;6493;50.928;7.172;2022-11-12T16:14:09;1.63;;;1.13;;
12848;SDS011;6493;50.928;7.172;2022-11-12T16:19:35;1.40;;;1.00;;
12848;SDS011;6493;50.928;7.172;2022-11-12T16:24:58;1.17;;;0.90;;
12848;SDS011;6493;50.928;7.172;2022-11-12T16:30:21;1.70;;;0.90;;
12848;SDS011;6493;50.928;7.172;2022-11-12T16:35:46;1.10;;;1.00;;
12848;SDS011;6493;50.928;7.172;2022-11-12T16:41:08;0.73;;;0.73;;
12848;SDS011;6493;50.928;7.172;2022-11-12T16:46:33;1.20;;;1.00;;
12848;SDS011;6493;50.928;7.172;2022-11-12T16:51:59;1.20;;;1.10;;
12848;SDS011;6493;50.928;7.172;2022-11-12T16:57:21;1.47;;;1.37;;
12848;SDS011;6493;50.928;7.172;2022-11-12T17:02:44;1.63;;;1.53;;
12848;SDS011;6493;50.928;7.172;2022-11-12T17:08:14;1.73;;;1.57;;
12848;SDS011;6493;50.928;7.172;2022-11-12T17:13:36;1.63;;;1.37;;
12848;SDS011;6493;50.928;7.172;2022-11-12T17:18:59;1.20;;;1.10;;
12848;SDS011;6493;50.928;7.172;2022-11-12T17:24:25;1.23;;;1.10;;
12848;SDS011;6493;50.928;7.172;2022-11-12T17:29:48;0.60;;;0.60;;
12848;SDS011;6493;50.928;7.172;2022-11-12T17:35:10;0.70;;;0.57;;
12848;SDS011;6493;50.928;7.172;2022-11-12T17:40:33;0.60;;;0.50;;
12848;SDS011;6493;50.928;7.172;2022-11-12T17:45:56;0.60;;;0.60;;
12848;SDS011;6493;50.928;7.172;2022-11-12T17:51:19;1.80;;;0.70;;
12848;SDS011;6493;50.928;7.172;2022-11-12T17:56:44;1.53;;;0.73;;
12848;SDS011;6493;50.928;7.172;2022-11-12T18:02:07;0.60;;;0.60;;
12848;SDS011;6493;50.928;7.172;2022-11-12T18:07:31;1.67;;;1.20;;
12848;SDS011;6493;50.928;7.172;2022-11-12T18:12:54;2.00;;;1.70;;
12848;SDS011;6493;50.928;7.172;2022-11-12T18:18:18;1.80;;;1.40;;
12848;SDS011;6493;50.928;7.172;2022-11-12T18:23:41;2.17;;;1.97;;
12848;SDS011;6493;50.928;7.172;2022-11-12T18:29:06;2.33;;;2.07;;
12848;SDS011;6493;50.928;7.172;2022-11-12T18:34:28;2.37;;;2.10;;
12848;SDS011;6493;50.928;7.172;2022-11-12T18:39:50;2.03;;;1.83;;
12848;SDS011;6493;50.928;7.172;2022-11-12T18:45:14;2.93;;;2.07;;
12848;SDS011;6493;50.928;7.172;2022-11-12T18:50:37;4.07;;;3.03;;
12848;SDS011;6493;50.928;7.172;2022-11-12T18:56:00;3.77;;;2.80;;
12848;SDS011;6493;50.928;7.172;2022-11-12T19:01:25;3.20;;;2.70;;
12848;SDS011;6493;50.928;7.172;2022-11-12T19:06:47;2.57;;;2.30;;
12848;SDS011;6493;50.928;7.172;2022-11-12T19:12:09;2.50;;;2.07;;
12848;SDS011;6493;50.928;7.172;2022-11-12T19:17:33;2.93;;;2.00;;
12848;SDS011;6493;50.928;7.172;2022-11-12T19:22:55;2.90;;;1.77;;
12848;SDS011;6493;50.928;7.172;2022-11-12T19:28:17;1.77;;;1.47;;
12848;SDS011;6493;50.928;7.172;2022-11-12T19:33:41;2.67;;;1.70;;
12848;SDS011;6493;50.928;7.172;2022-11-12T19:39:04;2.70;;;1.70;;
12848;SDS011;6493;50.928;7.172;2022-11-12T19:44:26;1.63;;;1.43;;
12848;SDS011;6493;50.928;7.172;2022-11-12T19:49:49;2.20;;;1.90;;
12848;SDS011;6493;50.928;7.172;2022-11-12T19:55:12;2.60;;;2.13;;
12848;SDS011;6493;50.928;7.172;2022-11-12T20:00:34;2.60;;;2.40;;
12848;SDS011;6493;50.928;7.172;2022-11-12T20:05:59;2.67;;;2.23;;
12848;SDS011;6493;50.928;7.172;2022-11-12T20:11:22;3.37;;;2.10;;
12848;SDS011;6493;50.928;7.172;2022-11-12T20:16:44;2.63;;;2.17;;
12848;SDS011;6493;50.928;7.172;2022-11-12T20:22:10;3.63;;;2.10;;
12848;SDS011;6493;50.928;7.172;2022-11-12T20:27:31;2.67;;;2.10;;
12848;SDS011;6493;50.928;7.172;2022-11-12T20:32:54;3.97;;;2.27;;
12848;SDS011;6493;50.928;7.172;2022-11-12T20:38:17;3.07;;;2.37;;
12848;SDS011;6493;50.928;7.172;2022-11-12T20:43:40;3.57;;;2.23;;
12848;SDS011;6493;50.928;7.172;2022-11-12T20:49:02;2.50;;;2.00;;
12848;SDS011;6493;50.928;7.172;2022-11-12T20:54:27;2.03;;;1.87;;
12848;SDS011;6493;50.928;7.172;2022-11-12T20:59:49;1.93;;;1.73;;
12848;SDS011;6493;50.928;7.172;2022-11-12T21:05:11;1.53;;;1.43;;
12848;SDS011;6493;50.928;7.172;2022-11-12T21:10:34;1.77;;;1.50;;
12848;SDS011;6493;50.928;7.172;2022-11-12T21:15:56;1.43;;;1.10;;
12848;SDS011;6493;50.928;7.172;2022-11-12T21:21:18;1.20;;;1.10;;
12848;SDS011;6493;50.928;7.172;2022-11-12T21:26:42;1.17;;;1.07;;
12848;SDS011;6493;50.928;7.172;2022-11-12T21:32:04;1.03;;;0.97;;
12848;SDS011;6493;50.928;7.172;2022-11-12T21:37:27;1.10;;;1.00;;
12848;SDS011;6493;50.928;7.172;2022-11-12T21:42:50;1.27;;;1.10;;
12848;SDS011;6493;50.928;7.172;2022-11-12T21:48:12;1.60;;;1.30;;
12848;SDS011;6493;50.928;7.172;2022-11-12T21:53:35;1.10;;;1.00;;
12848;SDS011;6493;50.928;7.172;2022-11-12T21:58:58;1.13;;;1.00;;
12848;SDS011;6493;50.928;7.172;2022-11-12T22:04:23;1.50;;;1.00;;
12848;SDS011;6493;50.928;7.172;2022-11-12T22:09:45;1.20;;;1.00;;
12848;SDS011;6493;50.928;7.172;2022-11-12T22:15:14;1.20;;;1.10;;
12848;SDS011;6493;50.928;7.172;2022-11-12T22:20:43;2.00;;;1.80;;
12848;SDS011;6493;50.928;7.172;2022-11-12T22:26:17;2.87;;;2.40;;
12848;SDS011;6493;50.928;7.172;2022-11-12T22:31:42;2.87;;;2.30;;
12848;SDS011;6493;50.928;7.172;2022-11-12T22:37:05;2.70;;;1.80;;
12848;SDS011;6493;50.928;7.172;2022-11-12T22:42:26;2.53;;;1.83;;
12848;SDS011;6493;50.928;7.172;2022-11-12T22:47:50;2.00;;;1.80;;
12848;SDS011;6493;50.928;7.172;2022-11-12T22:53:12;3.07;;;1.87;;
12848;SDS011;6493;50.928;7.172;2022-11-12T22:58:35;2.17;;;1.80;;
12848;SDS011;6493;50.928;7.172;2022-11-12T23:04:00;1.63;;;1.50;;
12848;SDS011;6493;50.928;7.172;2022-11-12T23:09:23;3.30;;;2.00;;
12848;SDS011;6493;50.928;7.172;2022-11-12T23:14:45;1.67;;;1.40;;
12848;SDS011;6493;50.928;7.172;2022-11-12T23:20:09;1.80;;;1.53;;
12848;SDS011;6493;50.928;7.172;2022-11-12T23:25:32;1.73;;;1.47;;
12848;SDS011;6493;50.928;7.172;2022-11-12T23:30:54;1.40;;;1.30;;
12848;SDS011;6493;50.928;7.172;2022-11-12T23:36:18;2.20;;;2.00;;
12848;SDS011;6493;50.928;7.172;2022-11-12T23:41:42;2.20;;;2.00;;
12848;SDS011;6493;50.928;7.172;2022-11-12T23:47:04;1.60;;;1.40;;
12848;SDS011;6493;50.928;7.172;2022-11-12T23:52:27;1.93;;;1.60;;
12848;SDS011;6493;50.928;7.172;2022-11-12T23:57:50;2.07;;;1.87;;
